sensor_id;sensor_type;location;lat;lon;timestamp;temperature;humidity
34768;DHT22;21755;43.608;1.236;2023-02-27T00:01:30;0.40;99.90
34768;DHT22;21755;43.608;1.236;2023-02-27T00:03:57;0.40;99.90
34768;DHT22;21755;43.608;1.236;2023-02-27T00:06:23;0.40;99.90
34768;DHT22;21755;43.608;1.236;2023-02-27T00:08:49;0.40;99.90
34768;DHT22;21755;43.608;1.236;2023-02-27T00:11:19;0.40;99.90
34768;DHT22;21755;43.608;1.236;2023-02-27T00:13:45;0.40;99.90
34768;DHT22;21755;43.608;1.236;2023-02-27T00:16:11;0.40;99.90
34768;DHT22;21755;43.608;1.236;2023-02-27T00:18:37;0.50;99.90
34768;DHT22;21755;43.608;1.236;2023-02-27T00:21:03;0.50;99.90
34768;DHT22;21755;43.608;1.236;2023-02-27T00:23:29;0.50;99.90
34768;DHT22;21755;43.608;1.236;2023-02-27T00:25:55;0.50;99.90
34768;DHT22;21755;43.608;1.236;2023-02-27T00:28:22;0.60;99.90
34768;DHT22;21755;43.608;1.236;2023-02-27T00:30:48;0.50;99.90
34768;DHT22;21755;43.608;1.236;2023-02-27T00:33:13;0.60;99.90
34768;DHT22;21755;43.608;1.236;2023-02-27T00:35:40;0.60;99.90
34768;DHT22;21755;43.608;1.236;2023-02-27T00:38:06;0.60;99.90
34768;DHT22;21755;43.608;1.236;2023-02-27T00:40:32;0.60;99.90
34768;DHT22;21755;43.608;1.236;2023-02-27T00:43:01;0.60;99.90
34768;DHT22;21755;43.608;1.236;2023-02-27T00:45:27;0.60;99.90
34768;DHT22;21755;43.608;1.236;2023-02-27T00:47:53;0.60;99.90
34768;DHT22;21755;43.608;1.236;2023-02-27T00:50:18;0.60;99.90
34768;DHT22;21755;43.608;1.236;2023-02-27T00:52:44;0.70;99.90
34768;DHT22;21755;43.608;1.236;2023-02-27T00:55:10;0.70;99.90
34768;DHT22;21755;43.608;1.236;2023-02-27T00:57:37;0.70;99.90
34768;DHT22;21755;43.608;1.236;2023-02-27T01:00:05;0.70;99.90
34768;DHT22;21755;43.608;1.236;2023-02-27T01:02:32;0.80;99.90
34768;DHT22;21755;43.608;1.236;2023-02-27T01:04:58;0.80;99.90
34768;DHT22;21755;43.608;1.236;2023-02-27T01:07:24;0.80;99.90
34768;DHT22;21755;43.608;1.236;2023-02-27T01:09:50;0.80;99.90
34768;DHT22;21755;43.608;1.236;2023-02-27T01:12:16;0.80;99.90
34768;DHT22;21755;43.608;1.236;2023-02-27T01:14:42;0.80;99.90
34768;DHT22;21755;43.608;1.236;2023-02-27T01:17:09;0.90;99.90
34768;DHT22;21755;43.608;1.236;2023-02-27T01:19:35;0.90;99.90
34768;DHT22;21755;43.608;1.236;2023-02-27T01:22:01;0.80;99.90
34768;DHT22;21755;43.608;1.236;2023-02-27T01:24:26;0.80;99.90
34768;DHT22;21755;43.608;1.236;2023-02-27T01:26:52;0.90;99.90
34768;DHT22;21755;43.608;1.236;2023-02-27T01:29:19;0.80;99.90
34768;DHT22;21755;43.608;1.236;2023-02-27T01:31:44;0.90;99.90
34768;DHT22;21755;43.608;1.236;2023-02-27T01:34:10;0.80;99.90
34768;DHT22;21755;43.608;1.236;2023-02-27T01:36:36;0.80;99.90
34768;DHT22;21755;43.608;1.236;2023-02-27T01:39:02;0.80;99.90
34768;DHT22;21755;43.608;1.236;2023-02-27T01:41:29;0.80;99.90
34768;DHT22;21755;43.608;1.236;2023-02-27T01:44:04;0.80;99.90
34768;DHT22;21755;43.608;1.236;2023-02-27T01:46:32;0.80;99.90
34768;DHT22;21755;43.608;1.236;2023-02-27T01:49:12;0.80;99.90
34768;DHT22;21755;43.608;1.236;2023-02-27T01:51:45;0.80;99.90
34768;DHT22;21755;43.608;1.236;2023-02-27T01:54:15;0.80;99.90
34768;DHT22;21755;43.608;1.236;2023-02-27T01:56:42;0.80;99.90
34768;DHT22;21755;43.608;1.236;2023-02-27T01:59:10;0.80;99.90
34768;DHT22;21755;43.608;1.236;2023-02-27T02:01:36;0.80;99.90
34768;DHT22;21755;43.608;1.236;2023-02-27T02:04:26;0.70;99.90
34768;DHT22;21755;43.608;1.236;2023-02-27T02:07:01;0.80;99.90
34768;DHT22;21755;43.608;1.236;2023-02-27T02:09:28;0.70;99.90
34768;DHT22;21755;43.608;1.236;2023-02-27T02:11:56;0.70;99.90
34768;DHT22;21755;43.608;1.236;2023-02-27T02:14:22;0.70;99.90
34768;DHT22;21755;43.608;1.236;2023-02-27T02:19:52;0.70;99.90
34768;DHT22;21755;43.608;1.236;2023-02-27T02:22:27;0.70;99.90
34768;DHT22;21755;43.608;1.236;2023-02-27T02:31:19;0.70;99.90
34768;DHT22;21755;43.608;1.236;2023-02-27T02:40:37;0.60;99.90
34768;DHT22;21755;43.608;1.236;2023-02-27T02:46:08;0.60;99.90
34768;DHT22;21755;43.608;1.236;2023-02-27T02:51:19;0.60;99.90
34768;DHT22;21755;43.608;1.236;2023-02-27T02:54:13;0.60;99.90
34768;DHT22;21755;43.608;1.236;2023-02-27T02:57:04;0.60;99.90
34768;DHT22;21755;43.608;1.236;2023-02-27T02:59:43;0.60;99.90
34768;DHT22;21755;43.608;1.236;2023-02-27T03:02:17;0.50;99.90
34768;DHT22;21755;43.608;1.236;2023-02-27T03:05:14;0.60;99.90
34768;DHT22;21755;43.608;1.236;2023-02-27T03:07:49;0.60;99.90
34768;DHT22;21755;43.608;1.236;2023-02-27T03:10:22;0.50;99.90
34768;DHT22;21755;43.608;1.236;2023-02-27T03:12:57;0.50;99.90
34768;DHT22;21755;43.608;1.236;2023-02-27T03:15:28;0.50;99.90
34768;DHT22;21755;43.608;1.236;2023-02-27T03:18:21;0.50;99.90
34768;DHT22;21755;43.608;1.236;2023-02-27T03:20:58;0.50;99.90
34768;DHT22;21755;43.608;1.236;2023-02-27T03:23:40;0.50;99.90
34768;DHT22;21755;43.608;1.236;2023-02-27T03:26:08;0.50;99.90
34768;DHT22;21755;43.608;1.236;2023-02-27T03:28:49;0.50;99.90
34768;DHT22;21755;43.608;1.236;2023-02-27T03:31:47;0.50;99.90
34768;DHT22;21755;43.608;1.236;2023-02-27T03:34:22;0.50;99.90
34768;DHT22;21755;43.608;1.236;2023-02-27T03:42:18;0.50;99.90
34768;DHT22;21755;43.608;1.236;2023-02-27T03:47:43;0.50;99.90
34768;DHT22;21755;43.608;1.236;2023-02-27T03:50:10;0.50;99.90
34768;DHT22;21755;43.608;1.236;2023-02-27T03:52:36;0.50;99.90
34768;DHT22;21755;43.608;1.236;2023-02-27T03:55:08;0.50;99.90
34768;DHT22;21755;43.608;1.236;2023-02-27T03:57:36;0.40;99.90
34768;DHT22;21755;43.608;1.236;2023-02-27T04:00:04;0.40;99.90
34768;DHT22;21755;43.608;1.236;2023-02-27T04:02:32;0.50;99.90
34768;DHT22;21755;43.608;1.236;2023-02-27T04:04:58;0.40;99.90
34768;DHT22;21755;43.608;1.236;2023-02-27T04:08:12;0.40;99.90
34768;DHT22;21755;43.608;1.236;2023-02-27T04:10:42;0.40;99.90
34768;DHT22;21755;43.608;1.236;2023-02-27T04:29:14;0.00;99.90
34768;DHT22;21755;43.608;1.236;2023-02-27T04:31:45;0.00;99.90
34768;DHT22;21755;43.608;1.236;2023-02-27T04:36:45;-0.10;99.90
34768;DHT22;21755;43.608;1.236;2023-02-27T04:39:23;-0.10;99.90
34768;DHT22;21755;43.608;1.236;2023-02-27T04:42:04;-0.10;99.90
34768;DHT22;21755;43.608;1.236;2023-02-27T04:44:33;-0.20;99.90
34768;DHT22;21755;43.608;1.236;2023-02-27T04:47:02;-0.20;99.90
34768;DHT22;21755;43.608;1.236;2023-02-27T04:49:36;-0.20;99.90
34768;DHT22;21755;43.608;1.236;2023-02-27T04:52:15;-0.20;99.90
34768;DHT22;21755;43.608;1.236;2023-02-27T04:58:06;-0.20;99.90
34768;DHT22;21755;43.608;1.236;2023-02-27T05:00:25;-0.10;99.90
34768;DHT22;21755;43.608;1.236;2023-02-27T05:03:18;-0.10;99.90
34768;DHT22;21755;43.608;1.236;2023-02-27T05:05:42;0.00;99.90
34768;DHT22;21755;43.608;1.236;2023-02-27T05:11:29;-0.20;99.90
34768;DHT22;21755;43.608;1.236;2023-02-27T05:16:56;-0.20;99.90
34768;DHT22;21755;43.608;1.236;2023-02-27T05:19:23;-0.20;99.90
34768;DHT22;21755;43.608;1.236;2023-02-27T05:25:22;-0.20;99.90
34768;DHT22;21755;43.608;1.236;2023-02-27T05:30:34;-0.30;99.90
34768;DHT22;21755;43.608;1.236;2023-02-27T05:33:12;-0.30;99.90
34768;DHT22;21755;43.608;1.236;2023-02-27T05:36:00;-0.30;99.90
34768;DHT22;21755;43.608;1.236;2023-02-27T05:38:32;-0.30;99.90
34768;DHT22;21755;43.608;1.236;2023-02-27T05:41:10;-0.30;99.90
34768;DHT22;21755;43.608;1.236;2023-02-27T05:43:45;-0.30;99.90
34768;DHT22;21755;43.608;1.236;2023-02-27T05:46:18;-0.20;99.90
34768;DHT22;21755;43.608;1.236;2023-02-27T05:49:08;-0.20;99.90
34768;DHT22;21755;43.608;1.236;2023-02-27T05:51:37;-0.20;99.90
34768;DHT22;21755;43.608;1.236;2023-02-27T05:54:15;-0.30;99.90
34768;DHT22;21755;43.608;1.236;2023-02-27T05:56:44;-0.20;99.90
34768;DHT22;21755;43.608;1.236;2023-02-27T05:59:21;-0.30;99.90
34768;DHT22;21755;43.608;1.236;2023-02-27T06:01:48;-0.40;99.90
34768;DHT22;21755;43.608;1.236;2023-02-27T06:04:14;-0.40;99.90
34768;DHT22;21755;43.608;1.236;2023-02-27T06:06:40;-0.40;99.90
34768;DHT22;21755;43.608;1.236;2023-02-27T06:09:07;-0.40;99.90
34768;DHT22;21755;43.608;1.236;2023-02-27T06:11:33;-0.30;99.90
34768;DHT22;21755;43.608;1.236;2023-02-27T06:13:59;-0.30;99.90
34768;DHT22;21755;43.608;1.236;2023-02-27T06:16:25;-0.30;99.90
34768;DHT22;21755;43.608;1.236;2023-02-27T06:18:51;-0.30;99.90
34768;DHT22;21755;43.608;1.236;2023-02-27T06:21:17;-0.30;99.90
34768;DHT22;21755;43.608;1.236;2023-02-27T06:23:43;-0.30;99.90
34768;DHT22;21755;43.608;1.236;2023-02-27T06:26:09;-0.30;99.90
34768;DHT22;21755;43.608;1.236;2023-02-27T06:28:39;-0.30;99.90
34768;DHT22;21755;43.608;1.236;2023-02-27T06:31:05;-0.40;99.90
34768;DHT22;21755;43.608;1.236;2023-02-27T06:33:31;-0.40;99.90
34768;DHT22;21755;43.608;1.236;2023-02-27T06:35:57;-0.40;99.90
34768;DHT22;21755;43.608;1.236;2023-02-27T06:38:23;-0.30;99.90
34768;DHT22;21755;43.608;1.236;2023-02-27T06:40:50;-0.30;99.90
34768;DHT22;21755;43.608;1.236;2023-02-27T06:43:16;-0.30;99.90
34768;DHT22;21755;43.608;1.236;2023-02-27T06:45:42;-0.30;99.90
34768;DHT22;21755;43.608;1.236;2023-02-27T06:48:08;-0.30;99.90
34768;DHT22;21755;43.608;1.236;2023-02-27T06:50:35;-0.30;99.90
34768;DHT22;21755;43.608;1.236;2023-02-27T06:53:01;-0.30;99.90
34768;DHT22;21755;43.608;1.236;2023-02-27T06:55:27;-0.30;99.90
34768;DHT22;21755;43.608;1.236;2023-02-27T06:57:53;-0.30;99.90
34768;DHT22;21755;43.608;1.236;2023-02-27T07:00:20;-0.30;99.90
34768;DHT22;21755;43.608;1.236;2023-02-27T07:02:46;-0.20;99.90
34768;DHT22;21755;43.608;1.236;2023-02-27T07:05:11;-0.20;99.90
34768;DHT22;21755;43.608;1.236;2023-02-27T07:07:37;-0.10;99.90
34768;DHT22;21755;43.608;1.236;2023-02-27T07:10:06;-0.10;99.90
34768;DHT22;21755;43.608;1.236;2023-02-27T07:12:32;-0.10;99.90
34768;DHT22;21755;43.608;1.236;2023-02-27T07:14:58;-0.10;99.90
34768;DHT22;21755;43.608;1.236;2023-02-27T07:17:25;0.00;99.90
34768;DHT22;21755;43.608;1.236;2023-02-27T07:19:51;-0.10;99.90
34768;DHT22;21755;43.608;1.236;2023-02-27T07:22:16;-0.10;99.90
34768;DHT22;21755;43.608;1.236;2023-02-27T07:24:42;0.00;99.90
34768;DHT22;21755;43.608;1.236;2023-02-27T07:27:08;0.00;99.90
34768;DHT22;21755;43.608;1.236;2023-02-27T07:29:34;0.00;99.90
34768;DHT22;21755;43.608;1.236;2023-02-27T07:32:01;0.00;99.90
34768;DHT22;21755;43.608;1.236;2023-02-27T07:34:26;0.00;99.90
34768;DHT22;21755;43.608;1.236;2023-02-27T07:36:52;0.00;99.90
34768;DHT22;21755;43.608;1.236;2023-02-27T07:39:18;0.00;99.90
34768;DHT22;21755;43.608;1.236;2023-02-27T07:41:44;0.00;99.90
34768;DHT22;21755;43.608;1.236;2023-02-27T07:44:10;0.00;99.90
34768;DHT22;21755;43.608;1.236;2023-02-27T07:46:36;0.00;99.90
34768;DHT22;21755;43.608;1.236;2023-02-27T07:49:02;0.00;99.90
34768;DHT22;21755;43.608;1.236;2023-02-27T07:51:28;0.00;99.90
34768;DHT22;21755;43.608;1.236;2023-02-27T07:53:56;-0.10;99.90
34768;DHT22;21755;43.608;1.236;2023-02-27T07:56:23;-0.10;99.90
34768;DHT22;21755;43.608;1.236;2023-02-27T07:58:49;-0.10;99.90
34768;DHT22;21755;43.608;1.236;2023-02-27T08:01:15;0.00;99.90
34768;DHT22;21755;43.608;1.236;2023-02-27T08:03:41;-0.10;99.90
34768;DHT22;21755;43.608;1.236;2023-02-27T08:06:07;-0.10;99.90
34768;DHT22;21755;43.608;1.236;2023-02-27T08:08:33;0.00;99.90
34768;DHT22;21755;43.608;1.236;2023-02-27T08:10:59;0.00;99.90
34768;DHT22;21755;43.608;1.236;2023-02-27T08:13:25;0.00;99.90
34768;DHT22;21755;43.608;1.236;2023-02-27T08:15:51;0.10;99.90
34768;DHT22;21755;43.608;1.236;2023-02-27T08:18:19;0.10;99.90
34768;DHT22;21755;43.608;1.236;2023-02-27T08:20:45;0.20;99.90
34768;DHT22;21755;43.608;1.236;2023-02-27T08:23:11;0.20;99.90
34768;DHT22;21755;43.608;1.236;2023-02-27T08:25:37;0.30;99.90
34768;DHT22;21755;43.608;1.236;2023-02-27T08:28:03;0.30;99.90
34768;DHT22;21755;43.608;1.236;2023-02-27T08:30:29;0.40;99.90
34768;DHT22;21755;43.608;1.236;2023-02-27T08:32:55;0.50;99.90
34768;DHT22;21755;43.608;1.236;2023-02-27T08:35:21;0.60;99.90
34768;DHT22;21755;43.608;1.236;2023-02-27T08:37:47;0.60;99.90
34768;DHT22;21755;43.608;1.236;2023-02-27T08:40:15;0.60;99.90
34768;DHT22;21755;43.608;1.236;2023-02-27T08:42:41;0.70;99.90
34768;DHT22;21755;43.608;1.236;2023-02-27T08:45:08;0.70;99.90
34768;DHT22;21755;43.608;1.236;2023-02-27T08:47:34;0.70;99.90
34768;DHT22;21755;43.608;1.236;2023-02-27T08:50:00;0.70;99.90
34768;DHT22;21755;43.608;1.236;2023-02-27T08:52:26;0.80;99.90
34768;DHT22;21755;43.608;1.236;2023-02-27T08:54:52;0.80;99.90
34768;DHT22;21755;43.608;1.236;2023-02-27T08:57:18;0.70;99.90
34768;DHT22;21755;43.608;1.236;2023-02-27T08:59:44;0.90;99.90
34768;DHT22;21755;43.608;1.236;2023-02-27T09:02:10;0.90;99.90
34768;DHT22;21755;43.608;1.236;2023-02-27T09:04:38;0.90;99.90
34768;DHT22;21755;43.608;1.236;2023-02-27T09:07:05;0.80;99.90
34768;DHT22;21755;43.608;1.236;2023-02-27T09:09:31;0.90;99.90
34768;DHT22;21755;43.608;1.236;2023-02-27T09:11:57;0.90;99.90
34768;DHT22;21755;43.608;1.236;2023-02-27T09:14:22;1.00;99.90
34768;DHT22;21755;43.608;1.236;2023-02-27T09:16:48;1.10;99.90
34768;DHT22;21755;43.608;1.236;2023-02-27T09:19:14;1.10;99.90
34768;DHT22;21755;43.608;1.236;2023-02-27T09:21:41;1.10;99.90
34768;DHT22;21755;43.608;1.236;2023-02-27T09:24:07;1.10;99.90
34768;DHT22;21755;43.608;1.236;2023-02-27T09:26:34;1.20;99.90
34768;DHT22;21755;43.608;1.236;2023-02-27T09:29:00;1.00;99.90
34768;DHT22;21755;43.608;1.236;2023-02-27T09:31:26;1.10;99.90
34768;DHT22;21755;43.608;1.236;2023-02-27T09:33:54;1.00;99.90
34768;DHT22;21755;43.608;1.236;2023-02-27T09:36:22;1.00;99.90
34768;DHT22;21755;43.608;1.236;2023-02-27T09:38:48;0.90;99.90
34768;DHT22;21755;43.608;1.236;2023-02-27T09:41:38;1.00;99.90
34768;DHT22;21755;43.608;1.236;2023-02-27T09:44:36;1.10;99.90
34768;DHT22;21755;43.608;1.236;2023-02-27T09:47:05;1.20;99.90
34768;DHT22;21755;43.608;1.236;2023-02-27T09:49:46;1.50;99.90
34768;DHT22;21755;43.608;1.236;2023-02-27T09:52:14;1.60;99.90
34768;DHT22;21755;43.608;1.236;2023-02-27T09:54:40;1.70;99.90
34768;DHT22;21755;43.608;1.236;2023-02-27T09:57:14;1.60;99.90
34768;DHT22;21755;43.608;1.236;2023-02-27T09:59:51;1.40;99.90
34768;DHT22;21755;43.608;1.236;2023-02-27T10:10:45;1.80;99.90
34768;DHT22;21755;43.608;1.236;2023-02-27T10:13:49;1.60;99.90
34768;DHT22;21755;43.608;1.236;2023-02-27T10:16:20;1.60;99.90
34768;DHT22;21755;43.608;1.236;2023-02-27T10:21:17;1.50;99.90
34768;DHT22;21755;43.608;1.236;2023-02-27T10:23:51;1.50;99.90
34768;DHT22;21755;43.608;1.236;2023-02-27T10:26:28;1.70;99.90
34768;DHT22;21755;43.608;1.236;2023-02-27T10:28:59;1.70;99.90
34768;DHT22;21755;43.608;1.236;2023-02-27T10:31:32;1.60;99.90
34768;DHT22;21755;43.608;1.236;2023-02-27T10:34:00;1.60;99.90
34768;DHT22;21755;43.608;1.236;2023-02-27T10:36:27;1.70;99.90
34768;DHT22;21755;43.608;1.236;2023-02-27T10:38:59;1.80;99.90
34768;DHT22;21755;43.608;1.236;2023-02-27T10:41:26;1.70;99.90
34768;DHT22;21755;43.608;1.236;2023-02-27T10:43:59;2.80;99.90
34768;DHT22;21755;43.608;1.236;2023-02-27T10:46:33;3.00;99.90
34768;DHT22;21755;43.608;1.236;2023-02-27T10:49:19;2.80;99.90
34768;DHT22;21755;43.608;1.236;2023-02-27T10:51:47;2.40;99.90
34768;DHT22;21755;43.608;1.236;2023-02-27T10:54:27;2.20;99.90
34768;DHT22;21755;43.608;1.236;2023-02-27T10:57:00;2.30;99.90
34768;DHT22;21755;43.608;1.236;2023-02-27T10:59:34;2.40;99.90
34768;DHT22;21755;43.608;1.236;2023-02-27T11:02:22;2.40;99.90
34768;DHT22;21755;43.608;1.236;2023-02-27T11:04:52;2.20;99.90
34768;DHT22;21755;43.608;1.236;2023-02-27T11:07:33;2.30;99.90
34768;DHT22;21755;43.608;1.236;2023-02-27T11:10:21;2.20;99.90
34768;DHT22;21755;43.608;1.236;2023-02-27T11:13:17;2.20;99.90
34768;DHT22;21755;43.608;1.236;2023-02-27T11:16:04;2.30;99.90
34768;DHT22;21755;43.608;1.236;2023-02-27T11:18:31;2.30;99.90
34768;DHT22;21755;43.608;1.236;2023-02-27T11:21:21;2.40;99.90
34768;DHT22;21755;43.608;1.236;2023-02-27T11:24:00;2.50;99.90
34768;DHT22;21755;43.608;1.236;2023-02-27T11:26:37;2.60;99.90
34768;DHT22;21755;43.608;1.236;2023-02-27T11:29:13;2.60;99.90
34768;DHT22;21755;43.608;1.236;2023-02-27T11:34:38;2.40;99.90
34768;DHT22;21755;43.608;1.236;2023-02-27T11:37:29;2.50;99.90
34768;DHT22;21755;43.608;1.236;2023-02-27T11:40:12;2.40;99.90
34768;DHT22;21755;43.608;1.236;2023-02-27T11:42:48;2.30;99.90
34768;DHT22;21755;43.608;1.236;2023-02-27T11:45:35;2.40;99.90
34768;DHT22;21755;43.608;1.236;2023-02-27T11:48:58;2.50;99.90
34768;DHT22;21755;43.608;1.236;2023-02-27T11:56:52;2.30;99.90
34768;DHT22;21755;43.608;1.236;2023-02-27T11:59:25;2.30;99.90
34768;DHT22;21755;43.608;1.236;2023-02-27T12:04:40;2.40;99.90
34768;DHT22;21755;43.608;1.236;2023-02-27T12:09:44;2.20;99.90
34768;DHT22;21755;43.608;1.236;2023-02-27T12:12:17;2.30;99.90
34768;DHT22;21755;43.608;1.236;2023-02-27T12:15:09;2.30;99.90
34768;DHT22;21755;43.608;1.236;2023-02-27T12:17:48;2.30;99.90
34768;DHT22;21755;43.608;1.236;2023-02-27T12:26:37;2.50;99.90
34768;DHT22;21755;43.608;1.236;2023-02-27T12:29:30;2.40;99.90
34768;DHT22;21755;43.608;1.236;2023-02-27T12:32:13;2.40;99.90
34768;DHT22;21755;43.608;1.236;2023-02-27T12:37:32;2.40;99.90
34768;DHT22;21755;43.608;1.236;2023-02-27T12:40:00;2.40;99.90
34768;DHT22;21755;43.608;1.236;2023-02-27T12:46:01;2.40;99.90
34768;DHT22;21755;43.608;1.236;2023-02-27T13:02:20;2.50;99.90
34768;DHT22;21755;43.608;1.236;2023-02-27T13:16:36;2.70;99.90
34768;DHT22;21755;43.608;1.236;2023-02-27T13:19:22;2.70;99.90
34768;DHT22;21755;43.608;1.236;2023-02-27T13:22:07;2.80;99.90
34768;DHT22;21755;43.608;1.236;2023-02-27T13:24:40;2.80;99.90
34768;DHT22;21755;43.608;1.236;2023-02-27T13:27:24;2.80;99.90
34768;DHT22;21755;43.608;1.236;2023-02-27T13:37:55;2.90;99.90
34768;DHT22;21755;43.608;1.236;2023-02-27T13:43:33;3.00;99.90
34768;DHT22;21755;43.608;1.236;2023-02-27T13:46:03;2.90;99.90
34768;DHT22;21755;43.608;1.236;2023-02-27T13:54:27;3.10;99.90
34768;DHT22;21755;43.608;1.236;2023-02-27T13:59:29;3.00;99.90
34768;DHT22;21755;43.608;1.236;2023-02-27T14:04:28;3.20;99.90
34768;DHT22;21755;43.608;1.236;2023-02-27T14:07:05;3.20;99.90
34768;DHT22;21755;43.608;1.236;2023-02-27T14:09:37;3.60;99.90
34768;DHT22;21755;43.608;1.236;2023-02-27T14:12:06;3.70;99.90
34768;DHT22;21755;43.608;1.236;2023-02-27T14:14:51;3.80;99.90
34768;DHT22;21755;43.608;1.236;2023-02-27T14:20:13;3.80;99.90
34768;DHT22;21755;43.608;1.236;2023-02-27T14:31:06;3.90;99.90
34768;DHT22;21755;43.608;1.236;2023-02-27T14:33:35;3.90;99.90
34768;DHT22;21755;43.608;1.236;2023-02-27T14:36:08;3.80;99.90
34768;DHT22;21755;43.608;1.236;2023-02-27T14:38:38;3.40;99.90
34768;DHT22;21755;43.608;1.236;2023-02-27T14:43:44;3.70;99.90
34768;DHT22;21755;43.608;1.236;2023-02-27T14:46:35;4.10;99.90
34768;DHT22;21755;43.608;1.236;2023-02-27T14:49:03;4.10;99.90
34768;DHT22;21755;43.608;1.236;2023-02-27T14:51:33;4.20;99.90
34768;DHT22;21755;43.608;1.236;2023-02-27T14:54:24;3.90;99.90
34768;DHT22;21755;43.608;1.236;2023-02-27T14:56:54;3.70;99.90
34768;DHT22;21755;43.608;1.236;2023-02-27T14:59:40;3.80;99.90
34768;DHT22;21755;43.608;1.236;2023-02-27T15:02:28;3.80;99.90
34768;DHT22;21755;43.608;1.236;2023-02-27T15:07:34;3.90;99.90
34768;DHT22;21755;43.608;1.236;2023-02-27T15:10:02;3.90;99.90
34768;DHT22;21755;43.608;1.236;2023-02-27T15:12:30;4.00;99.90
34768;DHT22;21755;43.608;1.236;2023-02-27T15:14:59;3.80;99.90
34768;DHT22;21755;43.608;1.236;2023-02-27T15:17:35;3.90;99.90
34768;DHT22;21755;43.608;1.236;2023-02-27T15:20:02;3.90;99.90
34768;DHT22;21755;43.608;1.236;2023-02-27T15:22:41;3.70;99.90
34768;DHT22;21755;43.608;1.236;2023-02-27T15:25:29;3.70;99.90
34768;DHT22;21755;43.608;1.236;2023-02-27T15:28:03;3.90;99.90
34768;DHT22;21755;43.608;1.236;2023-02-27T15:30:31;3.90;99.90
34768;DHT22;21755;43.608;1.236;2023-02-27T15:32:58;4.00;99.90
34768;DHT22;21755;43.608;1.236;2023-02-27T15:35:31;4.00;99.90
34768;DHT22;21755;43.608;1.236;2023-02-27T15:37:59;3.90;99.90
34768;DHT22;21755;43.608;1.236;2023-02-27T15:40:31;3.90;99.90
34768;DHT22;21755;43.608;1.236;2023-02-27T15:42:58;3.90;99.90
34768;DHT22;21755;43.608;1.236;2023-02-27T15:45:31;3.90;99.90
34768;DHT22;21755;43.608;1.236;2023-02-27T15:47:57;3.70;99.90
34768;DHT22;21755;43.608;1.236;2023-02-27T15:50:27;3.80;99.90
34768;DHT22;21755;43.608;1.236;2023-02-27T15:53:07;3.80;99.90
34768;DHT22;21755;43.608;1.236;2023-02-27T15:55:37;3.70;99.90
34768;DHT22;21755;43.608;1.236;2023-02-27T15:58:18;3.60;99.90
34768;DHT22;21755;43.608;1.236;2023-02-27T16:00:44;3.40;99.90
34768;DHT22;21755;43.608;1.236;2023-02-27T16:03:15;3.60;99.90
34768;DHT22;21755;43.608;1.236;2023-02-27T16:05:42;3.50;99.90
34768;DHT22;21755;43.608;1.236;2023-02-27T16:08:15;3.50;99.90
34768;DHT22;21755;43.608;1.236;2023-02-27T16:10:43;3.50;99.90
34768;DHT22;21755;43.608;1.236;2023-02-27T16:13:28;3.60;99.90
34768;DHT22;21755;43.608;1.236;2023-02-27T16:18:49;3.40;99.90
34768;DHT22;21755;43.608;1.236;2023-02-27T16:21:20;3.50;99.90
34768;DHT22;21755;43.608;1.236;2023-02-27T16:23:47;3.50;99.90
34768;DHT22;21755;43.608;1.236;2023-02-27T16:26:25;3.40;99.90
34768;DHT22;21755;43.608;1.236;2023-02-27T16:28:54;3.30;99.90
34768;DHT22;21755;43.608;1.236;2023-02-27T16:31:29;3.20;99.90
34768;DHT22;21755;43.608;1.236;2023-02-27T16:33:59;3.30;99.90
34768;DHT22;21755;43.608;1.236;2023-02-27T16:36:28;3.20;99.90
34768;DHT22;21755;43.608;1.236;2023-02-27T16:38:54;3.20;99.90
34768;DHT22;21755;43.608;1.236;2023-02-27T16:41:22;3.20;99.90
34768;DHT22;21755;43.608;1.236;2023-02-27T16:43:51;3.10;99.90
34768;DHT22;21755;43.608;1.236;2023-02-27T16:46:18;3.10;99.90
34768;DHT22;21755;43.608;1.236;2023-02-27T16:48:51;3.10;99.90
34768;DHT22;21755;43.608;1.236;2023-02-27T16:51:23;3.10;99.90
34768;DHT22;21755;43.608;1.236;2023-02-27T16:53:50;3.10;99.90
34768;DHT22;21755;43.608;1.236;2023-02-27T16:56:17;3.00;99.90
34768;DHT22;21755;43.608;1.236;2023-02-27T16:58:44;3.00;99.90
34768;DHT22;21755;43.608;1.236;2023-02-27T17:01:11;3.10;99.90
34768;DHT22;21755;43.608;1.236;2023-02-27T17:03:41;3.00;99.90
34768;DHT22;21755;43.608;1.236;2023-02-27T17:06:08;3.00;99.90
34768;DHT22;21755;43.608;1.236;2023-02-27T17:08:39;3.00;99.90
34768;DHT22;21755;43.608;1.236;2023-02-27T17:11:07;3.00;99.90
34768;DHT22;21755;43.608;1.236;2023-02-27T17:13:33;3.00;99.90
34768;DHT22;21755;43.608;1.236;2023-02-27T17:16:03;3.00;99.90
34768;DHT22;21755;43.608;1.236;2023-02-27T17:18:29;3.00;99.90
34768;DHT22;21755;43.608;1.236;2023-02-27T17:20:58;3.00;99.90
34768;DHT22;21755;43.608;1.236;2023-02-27T17:23:25;3.00;99.90
34768;DHT22;21755;43.608;1.236;2023-02-27T17:25:54;2.90;99.90
34768;DHT22;21755;43.608;1.236;2023-02-27T17:28:21;2.90;99.90
34768;DHT22;21755;43.608;1.236;2023-02-27T17:30:48;2.80;99.90
34768;DHT22;21755;43.608;1.236;2023-02-27T17:33:15;2.80;99.90
34768;DHT22;21755;43.608;1.236;2023-02-27T17:35:41;2.80;99.90
34768;DHT22;21755;43.608;1.236;2023-02-27T17:38:07;2.80;99.90
34768;DHT22;21755;43.608;1.236;2023-02-27T17:40:35;2.80;99.90
34768;DHT22;21755;43.608;1.236;2023-02-27T17:43:02;2.80;99.90
34768;DHT22;21755;43.608;1.236;2023-02-27T17:45:28;2.80;99.90
34768;DHT22;21755;43.608;1.236;2023-02-27T17:47:54;2.70;99.90
34768;DHT22;21755;43.608;1.236;2023-02-27T17:50:23;2.70;99.90
34768;DHT22;21755;43.608;1.236;2023-02-27T17:52:50;2.70;99.90
34768;DHT22;21755;43.608;1.236;2023-02-27T17:55:16;2.70;99.90
34768;DHT22;21755;43.608;1.236;2023-02-27T17:57:42;2.80;99.90
34768;DHT22;21755;43.608;1.236;2023-02-27T18:00:11;2.80;99.90
34768;DHT22;21755;43.608;1.236;2023-02-27T18:02:44;2.80;99.90
34768;DHT22;21755;43.608;1.236;2023-02-27T18:05:13;2.70;99.90
34768;DHT22;21755;43.608;1.236;2023-02-27T18:07:39;2.70;99.90
34768;DHT22;21755;43.608;1.236;2023-02-27T18:10:06;2.70;99.90
34768;DHT22;21755;43.608;1.236;2023-02-27T18:12:34;2.70;99.90
34768;DHT22;21755;43.608;1.236;2023-02-27T18:15:00;2.70;99.90
34768;DHT22;21755;43.608;1.236;2023-02-27T18:17:27;2.70;99.90
34768;DHT22;21755;43.608;1.236;2023-02-27T18:19:53;2.60;99.90
34768;DHT22;21755;43.608;1.236;2023-02-27T18:22:19;2.60;99.90
34768;DHT22;21755;43.608;1.236;2023-02-27T18:24:47;2.70;99.90
34768;DHT22;21755;43.608;1.236;2023-02-27T18:27:13;2.60;99.90
34768;DHT22;21755;43.608;1.236;2023-02-27T18:29:39;2.60;99.90
34768;DHT22;21755;43.608;1.236;2023-02-27T18:32:08;2.60;99.90
34768;DHT22;21755;43.608;1.236;2023-02-27T18:34:34;2.50;99.90
34768;DHT22;21755;43.608;1.236;2023-02-27T18:37:00;2.50;99.90
34768;DHT22;21755;43.608;1.236;2023-02-27T18:39:26;2.50;99.90
34768;DHT22;21755;43.608;1.236;2023-02-27T18:41:52;2.50;99.90
34768;DHT22;21755;43.608;1.236;2023-02-27T18:44:17;2.50;99.90
34768;DHT22;21755;43.608;1.236;2023-02-27T18:46:44;2.50;99.90
34768;DHT22;21755;43.608;1.236;2023-02-27T18:49:10;2.40;99.90
34768;DHT22;21755;43.608;1.236;2023-02-27T18:51:36;2.40;99.90
34768;DHT22;21755;43.608;1.236;2023-02-27T18:54:02;2.40;99.90